createdAt,value
2022-10-19T00:00:08.755Z,19.74
2022-10-19T00:02:56.432Z,19.63
2022-10-19T00:05:24.128Z,18.82
2022-10-19T00:07:51.891Z,18.03
2022-10-19T00:10:19.651Z,17.45
2022-10-19T00:15:16.190Z,17.95
2022-10-19T00:17:44.500Z,18.69
2022-10-19T00:20:12.641Z,19.30
2022-10-19T00:22:40.507Z,19.52
2022-10-19T00:25:08.592Z,18.88
2022-10-19T00:27:37.347Z,18.10
2022-10-19T00:30:05.812Z,17.51
2022-10-19T00:32:33.919Z,17.26
2022-10-19T00:35:03.654Z,18.03
2022-10-19T00:37:31.482Z,18.91
2022-10-19T00:39:59.315Z,19.45
2022-10-19T00:42:27.101Z,19.54
2022-10-19T00:44:59.690Z,18.81
2022-10-19T00:47:28.092Z,17.99
2022-10-19T00:49:57.262Z,17.38
2022-10-19T00:52:25.559Z,17.21
2022-10-19T00:54:54.169Z,18.11
2022-10-19T00:57:22.985Z,18.98
2022-10-19T00:59:51.387Z,19.50
2022-10-19T01:02:19.108Z,19.62
2022-10-19T01:04:49.230Z,18.92
2022-10-19T01:07:17.266Z,18.12
2022-10-19T01:09:45.201Z,17.51
2022-10-19T01:12:15.833Z,17.29
2022-10-19T01:15:02.712Z,18.09
2022-10-19T01:17:39.513Z,18.91
2022-10-19T01:20:26.020Z,19.31
2022-10-19T01:23:31.811Z,18.89
2022-10-19T01:26:29.967Z,17.69
2022-10-19T01:29:35.243Z,17.31
2022-10-19T01:32:10.072Z,18.20
2022-10-19T01:34:44.725Z,18.87
2022-10-19T01:37:26.605Z,19.13
2022-10-19T01:40:05.086Z,19.30
2022-10-19T01:42:42.339Z,19.25
2022-10-19T01:45:27.345Z,18.35
2022-10-19T01:48:22.465Z,17.40
2022-10-19T01:51:02.581Z,17.13
2022-10-19T01:53:34.651Z,17.97
2022-10-19T01:56:03.342Z,18.67
2022-10-19T01:58:34.167Z,19.09
2022-10-19T02:01:05.381Z,19.43
2022-10-19T02:03:34.707Z,19.45
2022-10-19T02:06:06.854Z,18.70
2022-10-19T02:08:41.644Z,17.87
2022-10-19T02:11:09.554Z,17.23
2022-10-19T02:13:39.217Z,17.03
2022-10-19T02:16:12.054Z,17.80
2022-10-19T02:18:45.166Z,18.61
2022-10-19T02:21:12.964Z,19.21
2022-10-19T02:23:40.775Z,19.34
2022-10-19T02:26:08.783Z,18.61
2022-10-19T02:28:36.709Z,17.76
2022-10-19T02:31:07.078Z,17.33
2022-10-19T02:33:34.885Z,17.98
2022-10-19T02:36:03.922Z,18.78
2022-10-19T02:38:31.889Z,19.25
2022-10-19T02:41:15.966Z,19.27
2022-10-19T02:43:50.547Z,18.42
2022-10-19T02:46:28.128Z,17.60
2022-10-19T02:48:57.225Z,16.97
2022-10-19T02:51:36.616Z,16.76
2022-10-19T02:54:08.376Z,17.58
2022-10-19T02:56:36.138Z,18.49
2022-10-19T02:59:04.195Z,19.10
2022-10-19T03:01:31.991Z,19.27
2022-10-19T03:03:59.777Z,18.60
2022-10-19T03:06:27.610Z,17.79
2022-10-19T03:08:55.411Z,17.18
2022-10-19T03:11:23.122Z,17.00
2022-10-19T03:13:50.844Z,17.76
2022-10-19T03:16:19.017Z,18.62
2022-10-19T03:18:48.739Z,19.20
2022-10-19T03:21:16.799Z,19.28
2022-10-19T03:23:44.502Z,18.47
2022-10-19T03:26:16.329Z,17.61
2022-10-19T03:28:44.220Z,16.93
2022-10-19T03:31:12.094Z,16.73
2022-10-19T03:33:39.959Z,17.62
2022-10-19T03:36:17.828Z,18.60
2022-10-19T03:38:45.725Z,19.27
2022-10-19T03:41:13.535Z,19.31
2022-10-19T03:43:41.334Z,18.47
2022-10-19T03:46:09.429Z,17.63
2022-10-19T03:48:37.270Z,17.01
2022-10-19T03:51:07.742Z,16.76
2022-10-19T03:53:43.096Z,17.56
2022-10-19T03:56:13.501Z,18.38
2022-10-19T03:58:42.415Z,18.93
2022-10-19T04:01:21.438Z,18.85
2022-10-19T04:03:54.479Z,17.90
2022-10-19T04:06:26.062Z,17.08
2022-10-19T04:08:53.890Z,16.48
2022-10-19T04:11:24.739Z,16.32
2022-10-19T04:13:53.510Z,17.22
2022-10-19T04:16:22.483Z,18.21
2022-10-19T04:18:50.715Z,18.81
2022-10-19T04:21:22.916Z,18.91
2022-10-19T04:23:53.620Z,18.00
2022-10-19T04:26:21.433Z,17.12
2022-10-19T04:28:49.775Z,16.41
2022-10-19T04:31:17.580Z,16.28
2022-10-19T04:36:14.167Z,17.75
2022-10-19T04:38:42.018Z,17.89
2022-10-19T04:41:12.651Z,17.20
2022-10-19T04:43:40.975Z,16.31
2022-10-19T04:46:19.298Z,15.66
2022-10-19T04:48:50.346Z,15.48
2022-10-19T04:51:24.537Z,16.37
2022-10-19T04:53:57.006Z,17.19
2022-10-19T04:56:28.173Z,17.68
2022-10-19T04:58:57.514Z,17.44
2022-10-19T05:01:27.428Z,16.59
2022-10-19T05:04:00.637Z,15.89
2022-10-19T05:06:29.867Z,15.38
2022-10-19T05:08:57.702Z,15.24
2022-10-19T05:11:26.095Z,16.08
2022-10-19T05:13:54.189Z,16.92
2022-10-19T05:16:23.926Z,17.47
2022-10-19T05:18:56.153Z,17.46
2022-10-19T05:21:24.399Z,16.66
2022-10-19T05:23:53.612Z,15.90
2022-10-19T05:26:23.654Z,15.36
2022-10-19T05:28:57.060Z,14.94
2022-10-19T05:31:27.276Z,14.92
2022-10-19T05:33:58.595Z,15.89
2022-10-19T05:36:28.920Z,16.85
2022-10-19T05:38:57.716Z,17.20
2022-10-19T05:41:26.427Z,16.60
2022-10-19T05:43:56.422Z,15.88
2022-10-19T05:46:24.826Z,15.35
2022-10-19T05:48:52.750Z,15.20
2022-10-19T05:51:22.308Z,16.09
2022-10-19T05:53:50.172Z,16.99
2022-10-19T05:56:20.505Z,17.33
2022-10-19T05:58:49.147Z,16.76
2022-10-19T06:01:19.085Z,16.04
2022-10-19T06:03:48.105Z,15.48
2022-10-19T06:06:15.867Z,15.28
2022-10-19T06:08:43.802Z,16.05
2022-10-19T06:11:20.368Z,16.89
2022-10-19T06:13:50.505Z,17.27
2022-10-19T06:16:19.631Z,16.71
2022-10-19T06:18:47.425Z,16.02
2022-10-19T06:21:21.231Z,15.45
2022-10-19T06:23:53.484Z,15.31
2022-10-19T06:26:21.157Z,16.15
2022-10-19T06:28:49.972Z,16.93
2022-10-19T06:31:18.399Z,17.39
2022-10-19T06:33:49.192Z,16.82
2022-10-19T06:36:22.725Z,16.05
2022-10-19T06:38:51.413Z,15.43
2022-10-19T06:41:19.520Z,15.19
2022-10-19T06:43:51.446Z,15.96
2022-10-19T06:46:22.034Z,16.82
2022-10-19T06:48:57.577Z,17.18
2022-10-19T06:51:26.902Z,16.66
2022-10-19T06:53:57.026Z,15.93
2022-10-19T06:56:26.653Z,15.38
2022-10-19T06:58:54.729Z,15.18
2022-10-19T07:01:23.377Z,15.96
2022-10-19T07:03:52.410Z,16.85
2022-10-19T07:06:20.805Z,17.47
2022-10-19T07:08:48.751Z,17.71
2022-10-19T07:11:18.960Z,17.12
2022-10-19T07:13:46.891Z,16.47
2022-10-19T07:16:19.779Z,15.96
2022-10-19T07:18:53.085Z,15.57
2022-10-19T07:21:22.593Z,15.51
2022-10-19T07:23:50.942Z,16.43
2022-10-19T07:26:27.357Z,17.31
2022-10-19T07:28:56.865Z,17.54
2022-10-19T07:31:25.701Z,16.87
2022-10-19T07:33:54.982Z,16.21
2022-10-19T07:36:26.414Z,15.73
2022-10-19T07:38:54.519Z,15.35
2022-10-19T07:41:25.206Z,15.34
2022-10-19T07:43:53.525Z,16.27
2022-10-19T07:46:25.257Z,17.07
2022-10-19T07:48:53.550Z,17.43
2022-10-19T07:51:22.673Z,16.92
2022-10-19T07:53:50.632Z,16.32
2022-10-19T07:56:20.860Z,15.89
2022-10-19T07:58:49.972Z,15.57
2022-10-19T08:01:20.198Z,15.53
2022-10-19T08:06:37.457Z,17.46
2022-10-19T08:09:05.805Z,17.55
2022-10-19T08:11:35.428Z,16.98
2022-10-19T08:14:04.057Z,16.45
2022-10-19T08:16:37.448Z,16.03
2022-10-19T08:19:08.062Z,15.70
2022-10-19T08:21:37.092Z,15.44
2022-10-19T08:24:06.057Z,15.26
2022-10-19T08:26:36.085Z,15.55
2022-10-19T08:29:05.861Z,16.86
2022-10-19T08:31:33.712Z,17.77
2022-10-19T08:34:01.535Z,17.53
2022-10-19T08:36:31.356Z,16.97
2022-10-19T08:38:59.173Z,16.52
2022-10-19T08:41:38.023Z,16.19
2022-10-19T08:44:39.880Z,15.89
2022-10-19T08:47:27.592Z,15.67
2022-10-19T08:49:59.123Z,15.68
2022-10-19T08:52:34.272Z,15.71
2022-10-19T08:55:09.041Z,15.76
2022-10-19T08:57:37.318Z,16.01
2022-10-19T09:03:27.105Z,16.13
2022-10-19T09:06:22.589Z,16.03
2022-10-19T09:08:55.429Z,15.92
2022-10-19T09:11:30.850Z,15.81
2022-10-19T09:14:26.141Z,15.69
2022-10-19T09:16:59.230Z,15.60
2022-10-19T09:19:30.131Z,15.57
2022-10-19T09:21:59.270Z,15.53
2022-10-19T09:24:30.417Z,15.49
2022-10-19T09:27:02.038Z,15.41
2022-10-19T09:29:37.187Z,15.34
2022-10-19T09:32:12.468Z,15.30
2022-10-19T09:34:46.826Z,15.27
2022-10-19T09:37:23.250Z,15.25
2022-10-19T09:39:55.191Z,15.25
2022-10-19T09:42:33.022Z,15.28
2022-10-19T09:45:06.786Z,15.35
2022-10-19T09:47:39.569Z,15.37
2022-10-19T09:50:08.914Z,15.58
2022-10-19T09:52:40.655Z,15.69
2022-10-19T09:55:14.628Z,15.78
2022-10-19T09:57:59.514Z,15.87
2022-10-19T10:00:36.738Z,15.90
2022-10-19T10:03:06.222Z,15.85
2022-10-19T10:05:39.096Z,15.82
2022-10-19T10:08:14.789Z,15.82
2022-10-19T10:10:49.091Z,15.87
2022-10-19T10:13:18.794Z,16.10
2022-10-19T10:15:54.792Z,16.24
2022-10-19T10:18:23.896Z,16.39
2022-10-19T10:21:32.184Z,16.54
2022-10-19T10:24:12.048Z,16.76
2022-10-19T10:26:42.589Z,16.80
2022-10-19T10:29:18.061Z,16.78
2022-10-19T10:31:49.051Z,17.08
2022-10-19T10:34:38.573Z,17.51
2022-10-19T10:37:19.498Z,18.09
2022-10-19T10:39:51.971Z,18.64
2022-10-19T10:42:26.487Z,19.06
2022-10-19T10:44:56.309Z,19.25
2022-10-19T10:47:27.068Z,19.00
2022-10-19T10:50:07.070Z,18.51
2022-10-19T10:52:37.081Z,18.00
2022-10-19T10:55:08.566Z,17.59
2022-10-19T10:57:53.915Z,17.21
2022-10-19T11:00:25.122Z,16.88
2022-10-19T11:03:05.393Z,16.60
2022-10-19T11:05:41.116Z,16.32
2022-10-19T11:08:27.605Z,16.06
2022-10-19T11:11:15.009Z,15.80
2022-10-19T11:13:47.791Z,15.62
2022-10-19T11:16:18.296Z,15.51
2022-10-19T11:18:53.832Z,15.48
2022-10-19T11:21:47.103Z,15.48
2022-10-19T11:27:27.712Z,15.48
2022-10-19T11:30:13.571Z,15.48
2022-10-19T11:33:02.048Z,15.39
2022-10-19T11:35:39.323Z,15.29
2022-10-19T11:38:29.758Z,15.15
2022-10-19T11:41:39.280Z,15.02
2022-10-19T11:44:23.644Z,14.93
2022-10-19T11:47:01.031Z,14.86
2022-10-19T11:49:34.762Z,14.77
2022-10-19T11:52:49.712Z,14.65
2022-10-19T11:55:33.574Z,14.52
2022-10-19T11:58:32.347Z,14.43
2022-10-19T12:01:40.925Z,14.37
2022-10-19T12:04:28.690Z,14.80
2022-10-19T12:07:18.120Z,16.13
2022-10-19T12:10:08.439Z,17.33
2022-10-19T12:12:45.190Z,17.92
2022-10-19T12:15:28.203Z,17.44
2022-10-19T12:18:01.808Z,16.95
2022-10-19T12:20:50.324Z,16.61
2022-10-19T12:23:27.044Z,16.36
2022-10-19T12:25:56.647Z,16.18
2022-10-19T12:28:55.735Z,16.01
2022-10-19T12:31:31.974Z,15.81
2022-10-19T12:34:09.996Z,15.64
2022-10-19T12:36:45.694Z,15.51
2022-10-19T12:39:21.490Z,15.37
2022-10-19T12:42:18.766Z,15.23
2022-10-19T12:45:06.879Z,15.05
2022-10-19T12:47:34.976Z,14.90
2022-10-19T12:50:03.554Z,14.78
2022-10-19T12:52:36.524Z,14.70
2022-10-19T12:55:16.836Z,14.65
2022-10-19T12:57:48.311Z,14.59
2022-10-19T13:00:25.226Z,14.56
2022-10-19T13:03:00.056Z,14.54
2022-10-19T13:05:29.761Z,14.49
2022-10-19T13:07:58.355Z,14.44
2022-10-19T13:10:28.243Z,14.42
2022-10-19T13:12:56.226Z,14.59
2022-10-19T13:15:36.577Z,15.78
2022-10-19T13:18:16.902Z,16.68
2022-10-19T13:20:52.637Z,16.38
2022-10-19T13:23:26.568Z,15.96
2022-10-19T13:26:32.985Z,15.73
2022-10-19T13:29:01.354Z,15.56
2022-10-19T13:31:31.081Z,15.48
2022-10-19T13:33:59.108Z,15.42
2022-10-19T13:36:27.319Z,15.38
2022-10-19T13:39:03.037Z,15.33
2022-10-19T13:41:37.133Z,15.39
2022-10-19T13:44:18.262Z,15.48
2022-10-19T13:47:08.739Z,15.57
2022-10-19T13:50:04.434Z,15.64
2022-10-19T13:52:42.625Z,15.70
2022-10-19T13:55:47.239Z,15.76
2022-10-19T13:58:46.417Z,15.80
2022-10-19T14:01:55.407Z,15.88
2022-10-19T14:04:40.899Z,16.15
2022-10-19T14:07:25.191Z,16.64
2022-10-19T14:10:08.346Z,17.09
2022-10-19T14:12:40.861Z,17.78
2022-10-19T14:15:27.416Z,18.82
2022-10-19T14:17:57.766Z,20.25
2022-10-19T14:20:56.184Z,21.35
2022-10-19T14:23:32.621Z,21.70
2022-10-19T14:26:15.366Z,21.51
2022-10-19T14:28:43.492Z,21.49
2022-10-19T14:31:19.193Z,21.88
2022-10-19T14:33:48.684Z,21.82
2022-10-19T14:36:22.383Z,21.44
2022-10-19T14:38:55.089Z,21.34
2022-10-19T14:41:28.900Z,21.98
2022-10-19T14:44:10.006Z,22.19
2022-10-19T14:46:50.086Z,21.74
2022-10-19T14:49:21.354Z,21.55
2022-10-19T14:51:52.177Z,21.99
2022-10-19T14:54:25.661Z,22.03
2022-10-19T14:56:56.479Z,21.51
2022-10-19T14:59:35.797Z,20.90
2022-10-19T15:02:37.518Z,20.29
2022-10-19T15:05:07.112Z,19.71
2022-10-19T15:07:40.495Z,19.34
2022-10-19T15:10:18.741Z,19.02
2022-10-19T15:12:46.678Z,19.05
2022-10-19T15:15:37.441Z,19.01
2022-10-19T15:18:06.591Z,18.64
2022-10-19T15:20:49.227Z,18.21
2022-10-19T15:23:39.075Z,17.82
2022-10-19T15:26:37.120Z,17.50
2022-10-19T15:29:20.817Z,17.02
2022-10-19T15:32:21.945Z,16.64
2022-10-19T15:34:49.830Z,16.23
2022-10-19T15:37:23.090Z,15.92
2022-10-19T15:39:52.012Z,15.61
2022-10-19T15:42:52.278Z,15.33
2022-10-19T15:45:37.618Z,15.10
2022-10-19T15:48:24.710Z,14.89
2022-10-19T15:50:55.770Z,14.68
2022-10-19T15:53:26.971Z,14.48
2022-10-19T15:55:55.452Z,14.31
2022-10-19T15:58:26.663Z,14.13
2022-10-19T16:04:28.495Z,15.53
2022-10-19T16:07:11.609Z,17.04
2022-10-19T16:09:57.343Z,17.50
2022-10-19T16:12:44.503Z,16.81
2022-10-19T16:15:14.076Z,16.07
2022-10-19T16:17:57.440Z,15.53
2022-10-19T16:20:37.655Z,15.14
2022-10-19T16:23:23.048Z,14.81
2022-10-19T16:25:57.303Z,14.64
2022-10-19T16:28:59.646Z,14.46
2022-10-19T16:31:56.981Z,14.28
2022-10-19T16:34:26.472Z,14.57
2022-10-19T16:37:04.258Z,15.92
2022-10-19T16:39:34.947Z,16.97
2022-10-19T16:42:34.044Z,17.29
2022-10-19T16:45:16.938Z,16.60
2022-10-19T16:48:09.932Z,15.91
2022-10-19T16:50:41.232Z,15.51
2022-10-19T16:53:20.742Z,15.27
2022-10-19T16:55:52.049Z,15.04
2022-10-19T16:58:37.268Z,14.88
2022-10-19T17:01:19.077Z,14.72
2022-10-19T17:05:07.874Z,14.56
2022-10-19T17:08:36.753Z,14.39
2022-10-19T17:12:03.946Z,15.40
2022-10-19T17:15:40.831Z,17.20
2022-10-19T17:18:35.872Z,17.78
2022-10-19T17:24:53.605Z,16.28
2022-10-19T17:27:39.573Z,15.83
2022-10-19T17:31:21.686Z,15.54
2022-10-19T17:34:03.408Z,15.24
2022-10-19T17:39:53.363Z,14.83
2022-10-19T17:42:49.321Z,14.67
2022-10-19T17:45:35.643Z,14.50
2022-10-19T17:48:17.160Z,14.36
2022-10-19T17:54:21.638Z,14.04
2022-10-19T17:56:54.512Z,14.22
2022-10-19T17:59:46.678Z,15.51
2022-10-19T18:02:31.803Z,16.87
2022-10-19T18:05:07.051Z,17.40
2022-10-19T18:07:46.683Z,16.74
2022-10-19T18:10:16.341Z,16.05
2022-10-19T18:13:00.225Z,15.51
2022-10-19T18:15:35.543Z,15.13
2022-10-19T18:18:41.137Z,14.77
2022-10-19T18:21:24.014Z,14.46
2022-10-19T18:24:27.344Z,14.19
2022-10-19T18:26:55.224Z,13.93
2022-10-19T18:30:01.408Z,13.73
2022-10-19T18:32:25.177Z,13.53
2022-10-19T18:35:01.374Z,13.37
2022-10-19T18:37:42.189Z,13.23
2022-10-19T18:40:11.934Z,13.41
2022-10-19T18:42:55.968Z,14.91
2022-10-19T18:46:01.276Z,16.30
2022-10-19T18:48:42.057Z,16.17
2022-10-19T18:57:09.358Z,14.44
2022-10-19T19:01:05.303Z,14.02
2022-10-19T19:11:59.667Z,13.02
2022-10-19T19:14:32.529Z,12.86
2022-10-19T19:22:51.099Z,13.72
2022-10-19T19:24:49.077Z,12.70
2022-10-19T19:25:08.305Z,15.60
2022-10-19T19:27:42.062Z,15.91
2022-10-19T19:30:51.363Z,15.26
2022-10-19T19:33:23.793Z,14.47
2022-10-19T19:36:18.548Z,14.02
2022-10-19T19:38:51.518Z,13.61
2022-10-19T19:41:19.945Z,13.35
2022-10-19T19:43:47.976Z,13.12
2022-10-19T19:46:17.941Z,12.89
2022-10-19T19:48:47.992Z,12.68
2022-10-19T19:51:18.616Z,12.50
2022-10-19T19:53:47.666Z,12.33
2022-10-19T19:56:22.164Z,12.16
2022-10-19T19:58:54.588Z,12.37
2022-10-19T20:01:22.695Z,13.83
2022-10-19T20:03:52.995Z,15.07
2022-10-19T20:06:26.147Z,15.46
2022-10-19T20:08:57.482Z,14.78
2022-10-19T20:11:41.238Z,14.09
2022-10-19T20:14:16.749Z,13.61
2022-10-19T20:16:44.686Z,13.27
2022-10-19T20:19:38.346Z,13.00
2022-10-19T20:22:07.363Z,12.72
2022-10-19T20:24:36.945Z,12.53
2022-10-19T20:27:43.794Z,12.35
2022-10-19T20:30:11.897Z,12.15
2022-10-19T20:36:12.355Z,11.81
2022-10-19T20:38:40.833Z,12.17
2022-10-19T20:41:10.472Z,13.66
2022-10-19T20:43:39.020Z,14.69
2022-10-19T20:46:25.011Z,14.31
2022-10-19T20:49:02.093Z,13.53
2022-10-19T20:51:32.854Z,13.05
2022-10-19T20:54:02.728Z,12.69
2022-10-19T20:56:34.468Z,12.41
2022-10-19T20:59:05.155Z,12.19
2022-10-19T21:01:35.701Z,12.00
2022-10-19T21:04:05.159Z,11.83
2022-10-19T21:07:32.054Z,11.68
2022-10-19T21:10:03.019Z,11.49
2022-10-19T21:12:30.737Z,11.37
2022-10-19T21:14:58.547Z,11.59
2022-10-19T21:17:29.129Z,13.08
2022-10-19T21:22:46.197Z,13.67
2022-10-19T21:25:13.939Z,13.04
2022-10-19T21:27:41.709Z,12.58
2022-10-19T21:30:10.114Z,12.25
2022-10-19T21:32:37.874Z,11.98
2022-10-19T21:35:05.970Z,11.78
2022-10-19T21:37:36.340Z,11.60
2022-10-19T21:40:04.451Z,11.45
2022-10-19T21:42:32.159Z,11.31
2022-10-19T21:45:11.822Z,11.18
2022-10-19T21:47:48.899Z,11.04
2022-10-19T21:50:17.481Z,11.30
2022-10-19T21:52:45.338Z,12.86
2022-10-19T21:55:13.130Z,13.94
2022-10-19T21:57:40.920Z,13.50
2022-10-19T22:00:09.292Z,12.74
2022-10-19T22:02:40.666Z,12.17
2022-10-19T22:05:08.592Z,11.77
2022-10-19T22:07:36.699Z,11.46
2022-10-19T22:10:05.151Z,11.22
2022-10-19T22:12:33.149Z,11.03
2022-10-19T22:15:01.052Z,11.31
2022-10-19T22:17:28.799Z,12.95
2022-10-19T22:19:56.549Z,14.34
2022-10-19T22:22:24.306Z,14.84
2022-10-19T22:24:52.053Z,14.18
2022-10-19T22:27:19.813Z,13.48
2022-10-19T22:29:47.620Z,12.95
2022-10-19T22:32:15.362Z,12.55
2022-10-19T22:34:43.071Z,12.22
2022-10-19T22:37:10.795Z,11.92
2022-10-19T22:39:38.709Z,11.66
2022-10-19T22:42:06.480Z,11.44
2022-10-19T22:44:34.265Z,11.25
2022-10-19T22:47:02.047Z,11.06
2022-10-19T22:49:29.831Z,11.16
2022-10-19T22:51:57.553Z,12.61
2022-10-19T22:54:25.826Z,13.99
2022-10-19T22:56:53.674Z,14.41
2022-10-19T22:59:21.491Z,13.71
2022-10-19T23:01:49.276Z,13.03
2022-10-19T23:04:17.047Z,12.52
2022-10-19T23:06:44.795Z,12.16
2022-10-19T23:09:12.676Z,11.86
2022-10-19T23:11:40.380Z,11.61
2022-10-19T23:14:09.360Z,11.38
2022-10-19T23:16:37.128Z,11.17
2022-10-19T23:19:04.845Z,10.98
2022-10-19T23:21:32.648Z,10.82
2022-10-19T23:24:00.656Z,10.65
2022-10-19T23:26:28.440Z,10.49
2022-10-19T23:28:56.154Z,10.33
2022-10-19T23:31:26.416Z,10.23
2022-10-19T23:33:54.452Z,10.11
2022-10-19T23:36:24.452Z,10.36
2022-10-19T23:38:53.499Z,11.98
2022-10-19T23:41:21.915Z,13.46
2022-10-19T23:43:49.865Z,13.80
2022-10-19T23:46:17.644Z,13.11
2022-10-19T23:48:45.418Z,12.46
2022-10-19T23:51:16.236Z,11.99
2022-10-19T23:53:45.577Z,11.57
2022-10-19T23:56:16.031Z,11.25
2022-10-19T23:58:44.387Z,11.02
